createdAt,value
2023-02-19T00:01:28.955Z,49.17
2023-02-19T00:05:52.843Z,52.63
2023-02-19T00:10:16.867Z,48.72
2023-02-19T00:14:40.806Z,47.55
2023-02-19T00:19:08.543Z,50.00
2023-02-19T00:23:33.243Z,49.78
2023-02-19T00:27:57.197Z,40.75
2023-02-19T00:32:21.733Z,44.60
2023-02-19T00:36:47.021Z,42.60
2023-02-19T00:41:20.817Z,47.67
2023-02-19T00:45:44.718Z,65.78
2023-02-19T00:50:08.745Z,69.33
2023-02-19T00:54:34.148Z,84.40
2023-02-19T00:58:58.229Z,93.80
2023-02-19T01:03:22.954Z,90.23
2023-02-19T01:07:46.740Z,87.53
2023-02-19T01:12:12.087Z,87.32
2023-02-19T01:16:38.577Z,74.57
2023-02-19T01:21:07.913Z,67.53
2023-02-19T01:25:32.369Z,69.13
2023-02-19T01:29:57.896Z,60.60
2023-02-19T01:34:21.763Z,69.17
2023-02-19T01:38:46.007Z,59.92
2023-02-19T01:43:17.253Z,63.05
2023-02-19T01:47:43.053Z,61.90
2023-02-19T01:52:12.270Z,77.20
2023-02-19T01:56:38.948Z,63.63
2023-02-19T02:01:05.668Z,76.65
2023-02-19T02:05:45.331Z,70.43
2023-02-19T02:10:21.856Z,80.97
2023-02-19T02:14:48.578Z,71.40
2023-02-19T02:19:31.126Z,61.97
2023-02-19T02:24:18.222Z,70.10
2023-02-19T02:29:15.052Z,78.80
2023-02-19T02:33:45.611Z,79.17
2023-02-19T02:38:12.839Z,71.68
2023-02-19T02:42:39.528Z,80.03
2023-02-19T02:47:29.794Z,84.97
2023-02-19T02:51:55.903Z,77.30
2023-02-19T02:56:18.738Z,80.85
2023-02-19T03:00:57.751Z,80.55
2023-02-19T03:05:36.926Z,76.47
2023-02-19T03:10:00.979Z,84.30
2023-02-19T03:14:40.353Z,78.82
2023-02-19T03:19:18.530Z,79.53
2023-02-19T03:23:56.968Z,84.35
2023-02-19T03:28:18.280Z,84.90
2023-02-19T03:32:41.940Z,82.43
2023-02-19T03:37:13.238Z,77.70
2023-02-19T03:41:44.926Z,71.70
2023-02-19T03:46:17.965Z,72.47
2023-02-19T03:50:50.208Z,69.83
2023-02-19T03:55:19.432Z,64.70
2023-02-19T03:59:50.683Z,66.82
2023-02-19T04:04:21.356Z,66.70
2023-02-19T04:08:50.471Z,64.80
2023-02-19T04:13:20.450Z,67.40
2023-02-19T04:17:52.123Z,63.88
2023-02-19T04:22:19.062Z,60.70
2023-02-19T04:26:43.474Z,65.80
2023-02-19T04:31:07.935Z,32.58
2023-02-19T04:35:31.723Z,38.37
2023-02-19T04:39:57.127Z,34.92
2023-02-19T04:44:21.406Z,38.38
2023-02-19T04:48:45.256Z,38.43
2023-02-19T04:53:09.055Z,40.70
2023-02-19T04:57:34.437Z,35.15
2023-02-19T05:01:58.665Z,68.05
2023-02-19T05:06:22.632Z,68.13
2023-02-19T05:10:46.636Z,67.70
2023-02-19T05:15:12.072Z,67.97
2023-02-19T05:19:35.879Z,70.63
2023-02-19T05:23:59.705Z,69.30
2023-02-19T05:28:28.727Z,63.60
2023-02-19T05:32:54.395Z,59.60
2023-02-19T05:37:18.370Z,51.67
2023-02-19T05:41:42.500Z,51.28
2023-02-19T05:46:06.760Z,49.13
2023-02-19T05:50:33.607Z,37.37
2023-02-19T05:55:09.186Z,31.20
2023-02-19T05:59:33.311Z,39.10
2023-02-19T06:03:58.138Z,40.17
2023-02-19T06:08:23.933Z,35.65
2023-02-19T06:12:47.853Z,40.17
2023-02-19T06:17:11.572Z,41.93
2023-02-19T06:21:35.776Z,42.65
2023-02-19T06:26:11.796Z,42.50
2023-02-19T06:30:35.773Z,43.15
2023-02-19T06:34:59.734Z,40.03
2023-02-19T06:39:23.735Z,44.80
2023-02-19T06:43:48.927Z,40.80
2023-02-19T06:48:12.955Z,43.77
2023-02-19T06:52:37.006Z,37.78
2023-02-19T06:57:01.738Z,29.23
2023-02-19T07:01:27.830Z,19.77
2023-02-19T07:05:55.109Z,15.77
2023-02-19T07:10:19.282Z,21.70
2023-02-19T07:14:43.176Z,18.30
2023-02-19T07:19:09.731Z,10.80
2023-02-19T07:23:33.826Z,13.38
2023-02-19T07:27:57.834Z,20.88
2023-02-19T07:32:21.877Z,10.90
2023-02-19T07:36:47.374Z,13.48
2023-02-19T07:41:11.724Z,12.98
2023-02-19T07:45:36.174Z,14.33
2023-02-19T07:50:00.185Z,13.27
2023-02-19T07:54:25.899Z,10.43
2023-02-19T07:58:49.941Z,9.75
2023-02-19T08:03:13.871Z,4.97
2023-02-19T08:07:38.305Z,14.93
2023-02-19T08:12:21.113Z,13.13
2023-02-19T08:16:50.347Z,9.63
2023-02-19T08:21:18.178Z,5.28
2023-02-19T08:25:42.827Z,4.90
2023-02-19T08:30:09.909Z,3.47
2023-02-19T08:34:34.093Z,2.83
2023-02-19T08:38:58.182Z,1.90
2023-02-19T08:43:22.254Z,2.10
2023-02-19T08:47:47.739Z,14.73
2023-02-19T08:52:11.894Z,23.30
2023-02-19T08:56:35.812Z,26.38
2023-02-19T09:00:59.831Z,28.40
2023-02-19T09:05:25.115Z,37.35
2023-02-19T09:09:48.974Z,37.20
2023-02-19T09:14:12.831Z,45.23
2023-02-19T09:18:37.063Z,46.83
2023-02-19T09:23:02.391Z,43.33
2023-02-19T09:27:26.276Z,47.55
2023-02-19T09:31:50.128Z,49.60
2023-02-19T09:36:15.022Z,35.03
2023-02-19T09:40:41.030Z,40.03
2023-02-19T09:45:07.014Z,57.07
2023-02-19T09:49:34.635Z,54.65
2023-02-19T09:53:59.423Z,37.80
2023-02-19T09:58:30.135Z,73.93
2023-02-19T10:02:56.311Z,72.97
2023-02-19T10:07:23.767Z,77.55
2023-02-19T10:11:49.233Z,73.53
2023-02-19T10:16:18.595Z,74.53
2023-02-19T10:20:42.760Z,73.38
2023-02-19T10:25:07.132Z,76.78
2023-02-19T10:29:30.984Z,76.80
2023-02-19T10:33:57.688Z,70.18
2023-02-19T10:38:23.813Z,69.25
2023-02-19T10:42:49.231Z,65.60
2023-02-19T10:47:19.354Z,63.03
2023-02-19T10:51:45.012Z,62.03
2023-02-19T10:56:11.061Z,60.65
2023-02-19T11:00:34.931Z,62.87
2023-02-19T11:05:18.157Z,59.17
2023-02-19T11:09:46.505Z,53.13
2023-02-19T11:14:17.781Z,53.20
2023-02-19T11:18:43.050Z,50.55
2023-02-19T11:23:16.132Z,50.33
2023-02-19T11:27:56.176Z,53.50
2023-02-19T11:32:26.988Z,57.08
2023-02-19T11:37:10.185Z,61.92
2023-02-19T11:41:58.393Z,61.38
2023-02-19T11:46:29.794Z,60.23
2023-02-19T11:51:04.657Z,61.40
2023-02-19T11:55:44.317Z,59.33
2023-02-19T12:00:23.268Z,62.63
2023-02-19T12:05:05.634Z,64.72
2023-02-19T12:09:52.903Z,62.15
2023-02-19T12:14:40.573Z,63.60
2023-02-19T12:19:29.837Z,63.72
2023-02-19T12:24:13.059Z,58.63
2023-02-19T12:28:56.581Z,57.40
2023-02-19T12:33:50.022Z,58.93
2023-02-19T12:38:28.832Z,57.75
2023-02-19T12:43:05.151Z,57.42
2023-02-19T12:47:34.006Z,60.57
2023-02-19T12:52:01.613Z,60.88
2023-02-19T12:56:30.545Z,56.80
2023-02-19T13:00:59.837Z,54.97
2023-02-19T13:05:29.367Z,57.88
2023-02-19T13:09:57.067Z,53.83
2023-02-19T13:14:28.071Z,45.88
2023-02-19T13:18:55.916Z,43.00
2023-02-19T13:23:41.942Z,45.40
2023-02-19T13:28:23.743Z,45.05
2023-02-19T13:33:17.226Z,42.80
2023-02-19T13:37:43.064Z,38.60
2023-02-19T13:42:06.912Z,36.60
2023-02-19T13:46:43.053Z,33.13
2023-02-19T13:51:49.578Z,27.88
2023-02-19T13:56:39.409Z,20.55
2023-02-19T14:01:05.468Z,17.63
2023-02-19T14:06:00.335Z,20.90
2023-02-19T14:10:54.338Z,24.30
2023-02-19T14:15:43.914Z,27.10
2023-02-19T14:20:41.516Z,28.30
2023-02-19T14:25:08.310Z,29.67
2023-02-19T14:29:35.159Z,38.20
2023-02-19T14:34:05.101Z,36.67
2023-02-19T14:38:33.532Z,34.75
2023-02-19T14:43:01.337Z,27.23
2023-02-19T14:47:31.701Z,25.23
2023-02-19T14:52:02.377Z,26.93
2023-02-19T14:56:37.469Z,27.20
2023-02-19T15:01:07.028Z,26.83
2023-02-19T15:05:37.522Z,26.90
2023-02-19T15:10:05.839Z,24.90
2023-02-19T15:14:32.277Z,23.40
2023-02-19T15:18:58.265Z,26.37
2023-02-19T15:23:25.124Z,28.60
2023-02-19T15:27:54.919Z,26.65
2023-02-19T15:32:22.477Z,24.75
2023-02-19T15:36:47.348Z,27.63
2023-02-19T15:41:20.728Z,29.38
2023-02-19T15:45:48.488Z,20.20
2023-02-19T15:50:17.108Z,19.47
2023-02-19T15:54:49.064Z,19.48
2023-02-19T15:59:22.594Z,17.20
2023-02-19T16:03:48.341Z,19.23
2023-02-19T16:08:16.810Z,22.05
2023-02-19T16:12:43.556Z,17.58
2023-02-19T16:17:15.199Z,20.42
2023-02-19T16:21:44.534Z,39.27
2023-02-19T16:26:08.473Z,40.92
2023-02-19T16:30:35.464Z,50.88
2023-02-19T16:34:59.474Z,43.23
2023-02-19T16:39:25.622Z,49.03
2023-02-19T16:43:49.593Z,58.67
2023-02-19T16:48:13.855Z,58.83
2023-02-19T16:52:42.350Z,54.53
2023-02-19T16:57:10.088Z,47.53
2023-02-19T17:01:34.471Z,41.47
2023-02-19T17:05:58.510Z,40.93
2023-02-19T17:10:24.508Z,2.40
2023-02-19T17:14:49.796Z,2.65
2023-02-19T17:19:16.006Z,3.03
2023-02-19T17:23:40.052Z,2.47
2023-02-19T17:28:04.314Z,6.85
2023-02-19T17:32:29.824Z,27.47
2023-02-19T17:36:53.838Z,37.75
2023-02-19T17:41:17.715Z,44.00
2023-02-19T17:45:41.555Z,47.53
2023-02-19T17:50:08.085Z,48.30
2023-02-19T17:54:31.956Z,47.28
2023-02-19T17:58:57.099Z,47.90
2023-02-19T18:03:21.055Z,42.47
2023-02-19T18:07:46.660Z,39.17
2023-02-19T18:12:11.315Z,37.22
2023-02-19T18:16:35.510Z,30.53
2023-02-19T18:20:59.527Z,37.80
2023-02-19T18:25:25.601Z,30.35
2023-02-19T18:29:50.940Z,38.10
2023-02-19T18:34:18.648Z,38.13
2023-02-19T18:38:43.207Z,40.15
2023-02-19T18:43:08.603Z,40.42
2023-02-19T18:47:32.636Z,41.23
2023-02-19T18:51:56.894Z,39.58
2023-02-19T18:56:20.868Z,37.80
2023-02-19T19:00:46.255Z,38.63
2023-02-19T19:05:10.484Z,42.03
2023-02-19T19:09:34.859Z,41.80
2023-02-19T19:13:59.113Z,48.88
2023-02-19T19:18:26.175Z,51.63
2023-02-19T19:22:50.607Z,58.95
2023-02-19T19:27:14.556Z,52.72
2023-02-19T19:31:38.748Z,50.77
2023-02-19T19:36:04.232Z,49.97
2023-02-19T19:40:28.166Z,49.05
2023-02-19T19:44:52.328Z,48.10
2023-02-19T19:49:19.046Z,42.17
2023-02-19T19:53:37.430Z,38.28
2023-02-19T19:57:57.193Z,41.67
2023-02-19T20:02:15.418Z,21.87
2023-02-19T20:06:39.369Z,26.35
2023-02-19T20:11:03.958Z,37.25
2023-02-19T20:15:24.859Z,41.50
2023-02-19T20:19:44.410Z,37.28
2023-02-19T20:24:02.330Z,40.67
2023-02-19T20:28:22.526Z,40.27
2023-02-19T20:32:41.562Z,36.13
2023-02-19T20:36:59.852Z,38.33
2023-02-19T20:41:18.046Z,37.60
2023-02-19T20:45:37.121Z,31.90
2023-02-19T20:49:56.851Z,34.00
2023-02-19T20:54:15.694Z,32.45
2023-02-19T20:58:32.917Z,34.20
2023-02-19T21:02:52.669Z,33.47
2023-02-19T21:07:12.318Z,35.88
2023-02-19T21:11:30.439Z,34.80
2023-02-19T21:15:48.307Z,32.13
2023-02-19T21:20:09.779Z,33.10
2023-02-19T21:24:27.502Z,33.00
2023-02-19T21:28:45.533Z,32.97
2023-02-19T21:33:03.990Z,31.00
2023-02-19T21:37:23.503Z,33.70
2023-02-19T21:41:42.877Z,31.57
2023-02-19T21:46:02.351Z,30.27
2023-02-19T21:50:22.166Z,25.38
2023-02-19T21:54:41.453Z,18.23
2023-02-19T21:59:01.451Z,21.90
2023-02-19T22:03:19.325Z,19.35
2023-02-19T22:07:37.282Z,26.98
2023-02-19T22:11:56.600Z,25.93
2023-02-19T22:16:16.545Z,33.60
2023-02-19T22:20:37.323Z,27.10
2023-02-19T22:24:55.570Z,33.90
2023-02-19T22:29:16.332Z,33.05
2023-02-19T22:33:34.809Z,34.00
2023-02-19T22:37:52.951Z,35.60
2023-02-19T22:42:17.118Z,37.00
2023-02-19T22:46:49.115Z,36.88
2023-02-19T22:51:14.264Z,38.88
2023-02-19T22:55:38.267Z,36.57
2023-02-19T23:00:02.181Z,39.25
2023-02-19T23:04:27.443Z,36.95
2023-02-19T23:08:51.674Z,29.90
2023-02-19T23:13:15.468Z,28.48
2023-02-19T23:17:39.450Z,25.13
2023-02-19T23:22:05.233Z,26.53
2023-02-19T23:26:29.241Z,26.42
2023-02-19T23:30:53.193Z,22.80
2023-02-19T23:35:17.316Z,22.10
2023-02-19T23:39:43.400Z,32.50
2023-02-19T23:44:07.602Z,28.30
2023-02-19T23:48:31.388Z,27.85
2023-02-19T23:52:56.466Z,29.50
2023-02-19T23:57:21.917Z,25.15
